createdAt,value
2022-12-17T04:02:29.541Z,27.07
2022-12-17T04:05:19.907Z,30.27
2022-12-17T04:08:06.275Z,29.40
2022-12-17T04:10:52.037Z,28.17
2022-12-17T04:13:41.092Z,23.73
2022-12-17T04:16:27.454Z,26.20
2022-12-17T04:19:14.257Z,23.97
2022-12-17T04:22:02.018Z,19.90
2022-12-17T04:24:47.114Z,21.47
2022-12-17T04:27:32.441Z,25.20
2022-12-17T04:30:17.950Z,25.73
2022-12-17T04:33:03.557Z,22.20
2022-12-17T04:35:50.277Z,20.27
2022-12-17T04:38:34.981Z,20.63
2022-12-17T04:41:20.621Z,23.50
2022-12-17T04:44:06.174Z,28.83
2022-12-17T04:46:51.554Z,39.37
2022-12-17T04:49:37.148Z,57.57
2022-12-17T04:52:24.013Z,53.43
2022-12-17T04:55:09.739Z,28.83
2022-12-17T04:57:55.252Z,24.80
2022-12-17T05:00:40.822Z,37.07
2022-12-17T05:03:30.584Z,38.10
2022-12-17T05:06:16.495Z,35.93
2022-12-17T05:09:03.332Z,35.90
2022-12-17T05:11:48.936Z,31.47
2022-12-17T05:14:34.345Z,39.37
2022-12-17T05:17:20.022Z,35.57
2022-12-17T05:20:05.472Z,33.80
2022-12-17T05:22:51.047Z,24.20
2022-12-17T05:25:37.967Z,24.77
2022-12-17T05:28:23.465Z,29.83
2022-12-17T05:31:10.995Z,26.90
2022-12-17T05:33:56.865Z,31.40
2022-12-17T05:36:42.443Z,37.07
2022-12-17T05:39:28.046Z,42.37
2022-12-17T05:42:14.670Z,38.73
2022-12-17T05:45:00.076Z,24.23
2022-12-17T05:47:45.764Z,22.93
2022-12-17T05:50:31.294Z,23.90
2022-12-17T05:53:20.586Z,23.07
2022-12-17T05:56:08.109Z,27.53
2022-12-17T05:58:55.299Z,39.93
2022-12-17T06:01:40.852Z,66.37
2022-12-17T06:04:36.146Z,51.90
2022-12-17T06:07:21.789Z,61.40
2022-12-17T06:10:07.445Z,45.07
2022-12-17T06:12:53.030Z,52.07
2022-12-17T06:15:40.039Z,70.63
2022-12-17T06:18:25.582Z,41.43
2022-12-17T06:21:11.381Z,46.00
2022-12-17T06:23:57.085Z,37.17
2022-12-17T06:26:42.456Z,41.13
2022-12-17T06:29:39.476Z,49.43
2022-12-17T06:32:26.030Z,49.40
2022-12-17T06:35:11.521Z,47.93
2022-12-17T06:38:05.525Z,58.07
2022-12-17T06:40:51.092Z,63.73
2022-12-17T06:43:45.031Z,50.03
2022-12-17T06:46:32.769Z,66.33
2022-12-17T06:49:19.337Z,43.10
2022-12-17T06:52:04.589Z,36.37
2022-12-17T06:54:50.026Z,24.07
2022-12-17T06:57:40.831Z,22.70
2022-12-17T07:00:29.768Z,23.23
2022-12-17T07:03:15.792Z,21.67
2022-12-17T07:06:02.438Z,22.53
2022-12-17T07:08:48.034Z,22.13
2022-12-17T07:11:33.674Z,23.80
2022-12-17T07:14:19.296Z,19.43
2022-12-17T07:17:04.804Z,19.50
2022-12-17T07:19:50.269Z,18.23
2022-12-17T07:22:37.224Z,19.30
2022-12-17T07:25:25.473Z,17.53
2022-12-17T07:28:14.445Z,17.83
2022-12-17T07:31:00.021Z,17.47
2022-12-17T07:33:45.730Z,18.43
2022-12-17T07:36:39.702Z,17.53
2022-12-17T07:39:26.449Z,19.80
2022-12-17T07:42:12.022Z,29.83
2022-12-17T07:44:57.390Z,31.20
2022-12-17T07:47:42.822Z,20.90
2022-12-17T07:50:28.616Z,24.80
2022-12-17T07:53:23.596Z,21.87
2022-12-17T07:56:10.641Z,24.83
2022-12-17T07:58:56.197Z,23.20
2022-12-17T08:01:41.785Z,19.10
2022-12-17T08:04:27.103Z,31.43
2022-12-17T08:07:14.276Z,35.87
2022-12-17T08:09:59.666Z,25.47
2022-12-17T08:12:46.382Z,19.63
2022-12-17T08:15:31.964Z,24.37
2022-12-17T08:18:26.161Z,23.87
2022-12-17T08:21:12.694Z,20.50
2022-12-17T08:23:58.220Z,20.63
2022-12-17T08:26:47.806Z,20.40
2022-12-17T08:29:35.214Z,20.00
2022-12-17T08:32:32.273Z,20.33
2022-12-17T08:35:17.949Z,20.40
2022-12-17T08:38:03.566Z,23.97
2022-12-17T08:40:49.062Z,21.67
2022-12-17T08:43:34.838Z,27.33
2022-12-17T08:46:22.390Z,23.50
2022-12-17T08:49:07.839Z,20.73
2022-12-17T08:51:53.310Z,19.37
2022-12-17T08:54:38.759Z,19.40
2022-12-17T08:57:31.561Z,18.23
2022-12-17T09:00:17.805Z,16.53
2022-12-17T09:03:04.602Z,19.63
2022-12-17T09:05:49.079Z,21.47
2022-12-17T09:08:34.699Z,21.40
2022-12-17T09:11:20.102Z,26.80
2022-12-17T09:14:05.574Z,19.67
2022-12-17T09:16:51.185Z,17.07
2022-12-17T09:19:36.982Z,23.10
2022-12-17T09:22:22.504Z,22.40
2022-12-17T09:25:07.785Z,26.50
2022-12-17T09:27:53.288Z,22.73
2022-12-17T09:30:38.997Z,19.37
2022-12-17T09:33:24.746Z,19.33
2022-12-17T09:36:11.725Z,21.87
2022-12-17T09:38:57.317Z,21.30
2022-12-17T09:41:46.022Z,22.73
2022-12-17T09:44:40.298Z,22.27
2022-12-17T09:47:47.925Z,20.00
2022-12-17T09:50:46.414Z,20.87
2022-12-17T09:53:40.141Z,21.57
2022-12-17T09:56:29.183Z,21.73
2022-12-17T09:59:14.691Z,22.97
2022-12-17T10:02:00.412Z,21.77
2022-12-17T10:04:52.762Z,23.67
2022-12-17T10:07:40.858Z,23.15
2022-12-17T10:10:35.703Z,21.03
2022-12-17T10:13:21.387Z,24.33
2022-12-17T10:16:06.982Z,28.70
2022-12-17T10:18:52.529Z,28.50
2022-12-17T10:21:38.133Z,34.10
2022-12-17T10:24:39.224Z,27.53
2022-12-17T10:27:29.741Z,29.77
2022-12-17T10:30:15.190Z,26.07
2022-12-17T10:33:00.658Z,31.13
2022-12-17T10:35:54.325Z,26.93
2022-12-17T10:38:42.362Z,20.43
2022-12-17T10:41:41.394Z,17.60
2022-12-17T10:44:42.469Z,23.50
2022-12-17T10:47:31.741Z,24.70
2022-12-17T10:50:18.573Z,17.03
2022-12-17T10:53:10.909Z,18.00
2022-12-17T10:56:05.766Z,22.40
2022-12-17T10:58:51.300Z,21.23
2022-12-17T11:01:41.104Z,25.23
2022-12-17T11:04:43.605Z,23.87
2022-12-17T11:07:33.100Z,24.90
2022-12-17T11:10:21.220Z,23.67
2022-12-17T11:13:09.754Z,22.00
2022-12-17T11:15:59.201Z,20.30
2022-12-17T11:18:49.637Z,23.27
2022-12-17T11:21:41.809Z,24.03
2022-12-17T11:24:33.333Z,22.43
2022-12-17T11:27:24.014Z,22.13
2022-12-17T11:30:09.722Z,25.47
2022-12-17T11:33:04.634Z,23.20
2022-12-17T11:35:56.525Z,24.83
2022-12-17T11:38:53.260Z,24.57
2022-12-17T11:41:53.364Z,24.13
2022-12-17T11:44:50.984Z,23.23
2022-12-17T11:47:45.692Z,23.07
2022-12-17T11:50:39.103Z,20.10
2022-12-17T11:53:51.645Z,24.17
2022-12-17T11:56:41.555Z,25.43
2022-12-17T11:59:34.751Z,28.60
2022-12-17T12:02:28.399Z,26.20
2022-12-17T12:05:29.968Z,30.57
2022-12-17T12:08:23.332Z,25.10
2022-12-17T12:11:18.536Z,23.17
2022-12-17T12:14:09.563Z,25.80
2022-12-17T12:17:04.220Z,25.07
2022-12-17T12:19:56.655Z,30.93
2022-12-17T12:22:50.200Z,30.30
2022-12-17T12:25:51.724Z,26.47
2022-12-17T12:28:48.521Z,27.60
2022-12-17T12:31:43.798Z,25.70
2022-12-17T12:34:34.307Z,25.50
2022-12-17T12:37:21.577Z,27.60
2022-12-17T12:40:13.190Z,24.80
2022-12-17T12:43:04.962Z,29.90
2022-12-17T12:46:01.806Z,27.47
2022-12-17T12:48:57.199Z,30.90
2022-12-17T12:51:45.320Z,29.00
2022-12-17T12:54:43.624Z,31.40
2022-12-17T12:57:50.560Z,32.63
2022-12-17T13:00:56.380Z,28.47
2022-12-17T13:03:48.118Z,24.67
2022-12-17T13:06:31.734Z,29.87
2022-12-17T13:09:06.069Z,33.43
2022-12-17T13:11:38.908Z,30.80
2022-12-17T13:14:14.367Z,27.30
2022-12-17T13:16:54.591Z,30.40
2022-12-17T13:19:36.519Z,28.30
2022-12-17T13:22:29.824Z,26.60
2022-12-17T13:25:15.434Z,29.00
2022-12-17T13:27:43.785Z,30.20
2022-12-17T13:30:22.758Z,33.23
2022-12-17T13:33:02.108Z,29.53
2022-12-17T13:35:40.384Z,30.60
2022-12-17T13:38:17.053Z,34.97
2022-12-17T13:40:49.426Z,33.63
2022-12-17T13:43:20.701Z,34.67
2022-12-17T13:45:49.318Z,32.40
2022-12-17T13:48:23.767Z,35.57
2022-12-17T13:50:56.270Z,38.90
2022-12-17T13:53:24.202Z,40.53
2022-12-17T13:55:52.930Z,41.67
2022-12-17T13:58:25.990Z,42.60
2022-12-17T14:01:07.390Z,42.50
2022-12-17T14:04:04.237Z,48.17
2022-12-17T14:06:29.675Z,48.33
2022-12-17T14:08:59.010Z,56.20
2022-12-17T14:11:44.705Z,52.23
2022-12-17T14:14:20.981Z,47.23
2022-12-17T14:16:50.932Z,52.17
2022-12-17T14:19:20.540Z,50.13
2022-12-17T14:21:48.850Z,51.10
2022-12-17T14:24:19.840Z,56.63
2022-12-17T14:26:51.842Z,46.07
2022-12-17T14:29:23.807Z,52.47
2022-12-17T14:31:56.448Z,50.80
2022-12-17T14:34:26.012Z,54.30
2022-12-17T14:36:59.244Z,50.20
2022-12-17T14:39:28.689Z,56.93
2022-12-17T14:42:15.524Z,51.57
2022-12-17T14:44:52.133Z,54.00
2022-12-17T14:47:22.757Z,54.37
2022-12-17T14:49:59.147Z,55.77
2022-12-17T14:52:34.127Z,53.60
2022-12-17T14:55:02.419Z,52.40
2022-12-17T14:57:30.870Z,53.93
2022-12-17T14:59:58.762Z,50.87
2022-12-17T15:02:30.872Z,51.87
2022-12-17T15:05:03.469Z,54.70
2022-12-17T15:07:32.988Z,50.40
2022-12-17T15:10:00.883Z,48.63
2022-12-17T15:12:29.007Z,45.67
2022-12-17T15:14:56.829Z,46.67
2022-12-17T15:17:24.710Z,46.20
2022-12-17T15:19:56.241Z,47.00
2022-12-17T15:22:25.810Z,45.42
2022-12-17T15:24:53.649Z,52.45
2022-12-17T15:27:21.515Z,48.60
2022-12-17T15:29:49.531Z,48.57
2022-12-17T15:32:20.174Z,46.07
2022-12-17T15:34:48.443Z,43.83
2022-12-17T15:37:21.044Z,45.30
2022-12-17T15:39:52.899Z,46.50
2022-12-17T15:42:38.145Z,48.10
2022-12-17T15:45:07.039Z,46.07
2022-12-17T15:47:34.876Z,43.90
2022-12-17T15:50:03.412Z,48.47
2022-12-17T15:52:32.576Z,47.20
2022-12-17T15:55:01.710Z,56.67
2022-12-17T15:57:29.507Z,45.20
2022-12-17T15:59:57.309Z,47.57
2022-12-17T16:02:25.639Z,46.50
2022-12-17T16:04:53.664Z,44.40
2022-12-17T16:07:21.484Z,44.53
2022-12-17T16:09:49.344Z,45.27
2022-12-17T16:12:18.545Z,41.97
2022-12-17T16:14:48.534Z,45.10
2022-12-17T16:17:16.431Z,43.20
2022-12-17T16:19:44.290Z,43.57
2022-12-17T16:22:12.359Z,57.83
2022-12-17T16:24:40.885Z,47.47
2022-12-17T16:27:08.786Z,48.23
2022-12-17T16:29:37.972Z,48.73
2022-12-17T16:32:06.443Z,48.87
2022-12-17T16:34:34.326Z,47.37
2022-12-17T16:37:02.191Z,43.23
2022-12-17T16:39:30.062Z,46.73
2022-12-17T16:41:58.153Z,50.27
2022-12-17T16:44:26.085Z,49.60
2022-12-17T16:46:55.291Z,48.07
2022-12-17T16:49:24.575Z,48.17
2022-12-17T16:51:53.908Z,43.20
2022-12-17T16:54:24.145Z,47.57
2022-12-17T16:56:51.991Z,47.70
2022-12-17T16:59:20.212Z,47.13
2022-12-17T17:01:50.016Z,53.27
2022-12-17T17:04:21.241Z,42.00
2022-12-17T17:06:50.832Z,46.70
2022-12-17T17:09:19.460Z,49.20
2022-12-17T17:11:51.494Z,45.60
2022-12-17T17:14:20.191Z,49.53
2022-12-17T17:16:48.102Z,49.27
2022-12-17T17:19:16.125Z,46.53
2022-12-17T17:21:49.851Z,44.83
2022-12-17T17:24:21.737Z,43.13
2022-12-17T17:26:50.242Z,43.13
2022-12-17T17:29:18.512Z,44.40
2022-12-17T17:32:09.140Z,45.80
2022-12-17T17:34:34.490Z,49.20
2022-12-17T17:37:05.096Z,44.47
2022-12-17T17:39:34.124Z,46.67
2022-12-17T17:42:02.088Z,47.77
2022-12-17T17:44:29.948Z,45.03
2022-12-17T17:46:57.882Z,48.80
2022-12-17T17:49:25.963Z,46.17
2022-12-17T17:52:10.909Z,45.23
2022-12-17T17:54:41.120Z,42.33
2022-12-17T17:57:09.690Z,44.90
2022-12-17T17:59:39.235Z,44.87
2022-12-17T18:02:08.568Z,43.33
2022-12-17T18:04:36.585Z,46.20
2022-12-17T18:09:53.792Z,43.13
2022-12-17T18:12:40.161Z,49.97
2022-12-17T18:15:17.783Z,48.60
2022-12-17T18:17:47.371Z,47.87
2022-12-17T18:20:15.364Z,47.40
2022-12-17T18:22:43.401Z,50.17
2022-12-17T18:25:13.013Z,47.13
2022-12-17T18:27:40.922Z,53.27
2022-12-17T18:30:10.435Z,50.10
2022-12-17T18:32:38.292Z,47.03
2022-12-17T18:35:07.041Z,48.17
2022-12-17T18:37:35.053Z,48.57
2022-12-17T18:40:03.203Z,52.87
2022-12-17T18:42:50.057Z,46.87
2022-12-17T18:45:17.985Z,46.70
2022-12-17T18:47:46.904Z,51.63
2022-12-17T18:50:14.786Z,53.90
2022-12-17T18:52:42.658Z,54.87
2022-12-17T18:55:12.088Z,46.97
2022-12-17T18:57:41.801Z,54.23
2022-12-17T19:00:11.283Z,53.27
2022-12-17T19:02:39.323Z,47.63
2022-12-17T19:05:07.774Z,47.33
2022-12-17T19:07:35.641Z,49.23
2022-12-17T19:10:03.565Z,44.17
2022-12-17T19:12:31.408Z,48.87
2022-12-17T19:15:00.597Z,44.57
2022-12-17T19:17:28.525Z,44.10
2022-12-17T19:19:56.389Z,46.90
2022-12-17T19:22:24.606Z,55.50
2022-12-17T19:24:52.454Z,52.07
2022-12-17T19:27:20.292Z,48.03
2022-12-17T19:29:49.938Z,55.40
2022-12-17T19:32:19.423Z,52.60
2022-12-17T19:34:47.263Z,52.90
2022-12-17T19:37:15.084Z,55.67
2022-12-17T19:39:42.967Z,42.97
2022-12-17T19:42:24.437Z,42.03
2022-12-17T19:44:53.240Z,41.13
2022-12-17T19:47:22.987Z,41.07
2022-12-17T19:49:51.128Z,43.90
2022-12-17T19:52:19.000Z,44.37
2022-12-17T19:54:46.835Z,42.20
2022-12-17T19:57:14.640Z,44.87
2022-12-17T19:59:42.482Z,40.57
2022-12-17T20:02:11.081Z,42.97
2022-12-17T20:04:40.491Z,47.20
2022-12-17T20:07:08.338Z,45.03
2022-12-17T20:09:36.216Z,44.63
2022-12-17T20:12:04.366Z,43.67
2022-12-17T20:14:34.163Z,42.67
2022-12-17T20:17:02.686Z,42.00
2022-12-17T20:19:32.225Z,39.80
2022-12-17T20:22:04.242Z,43.60
2022-12-17T20:24:32.481Z,44.20
2022-12-17T20:27:01.261Z,45.27
2022-12-17T20:29:29.394Z,46.47
2022-12-17T20:31:57.394Z,49.20
2022-12-17T20:34:28.301Z,49.97
2022-12-17T20:36:56.226Z,54.63
2022-12-17T20:39:28.032Z,47.37
2022-12-17T20:41:57.244Z,45.53
2022-12-17T20:44:25.260Z,48.00
2022-12-17T20:46:53.214Z,46.13
2022-12-17T20:49:21.117Z,46.30
2022-12-17T20:51:49.039Z,50.40
2022-12-17T20:54:16.900Z,54.07
2022-12-17T20:56:46.123Z,48.40
2022-12-17T20:59:16.373Z,52.70
2022-12-17T21:01:44.430Z,48.57
2022-12-17T21:04:13.913Z,51.50
2022-12-17T21:06:43.574Z,51.93
2022-12-17T21:09:12.122Z,51.43
2022-12-17T21:11:41.105Z,49.00
2022-12-17T21:14:13.758Z,46.50
2022-12-17T21:16:42.153Z,44.07
2022-12-17T21:19:13.415Z,45.97
2022-12-17T21:21:41.341Z,43.97
2022-12-17T21:24:10.235Z,39.33
2022-12-17T21:26:40.069Z,44.97
2022-12-17T21:29:09.457Z,46.10
2022-12-17T21:31:41.508Z,45.77
2022-12-17T21:34:12.468Z,46.83
2022-12-17T21:36:41.063Z,45.33
2022-12-17T21:39:10.564Z,49.10
2022-12-17T21:41:44.054Z,42.97
2022-12-17T21:44:15.308Z,45.10
2022-12-17T21:46:47.378Z,42.90
2022-12-17T21:49:18.082Z,40.80
2022-12-17T21:51:46.341Z,61.17
2022-12-17T21:54:19.207Z,54.10
2022-12-17T21:56:48.114Z,44.77
2022-12-17T21:59:15.996Z,42.30
2022-12-17T22:01:45.398Z,45.93
2022-12-17T22:04:13.389Z,44.33
2022-12-17T22:06:52.968Z,45.43
2022-12-17T22:09:41.830Z,48.13
2022-12-17T22:12:35.572Z,49.03
2022-12-17T22:15:03.711Z,47.23
2022-12-17T22:17:33.640Z,54.00
2022-12-17T22:20:01.505Z,43.50
2022-12-17T22:22:29.851Z,43.73
2022-12-17T22:24:59.228Z,49.20
2022-12-17T22:27:32.150Z,48.07
2022-12-17T22:30:17.601Z,45.77
2022-12-17T22:33:02.394Z,44.90
2022-12-17T22:36:45.494Z,45.97
2022-12-17T22:43:09.598Z,44.03
2022-12-17T22:44:45.810Z,46.97
2022-12-17T22:44:48.657Z,49.43
2022-12-17T22:47:07.164Z,49.47
2022-12-17T22:49:36.415Z,50.80
2022-12-17T22:52:04.370Z,51.17
2022-12-17T22:54:32.485Z,55.50
2022-12-17T22:57:35.903Z,47.10
2022-12-17T22:59:48.676Z,59.63
